sensor_id;sensor_type;location;lat;lon;timestamp;P1;durP1;ratioP1;P2;durP2;ratioP2
70150;SDS011;57517;43.562;19.540;2023-12-20T00:01:32;50.25;;;30.20;;
70150;SDS011;57517;43.562;19.540;2023-12-20T00:03:57;49.53;;;30.70;;
70150;SDS011;57517;43.562;19.540;2023-12-20T00:06:23;53.35;;;32.03;;
70150;SDS011;57517;43.562;19.540;2023-12-20T00:08:49;54.22;;;32.75;;
70150;SDS011;57517;43.562;19.540;2023-12-20T00:11:15;54.45;;;32.25;;
70150;SDS011;57517;43.562;19.540;2023-12-20T00:13:40;45.35;;;31.42;;
70150;SDS011;57517;43.562;19.540;2023-12-20T00:16:06;50.67;;;32.10;;
70150;SDS011;57517;43.562;19.540;2023-12-20T00:18:32;47.42;;;33.53;;
70150;SDS011;57517;43.562;19.540;2023-12-20T00:20:58;52.38;;;33.00;;
70150;SDS011;57517;43.562;19.540;2023-12-20T00:23:24;48.08;;;28.95;;
70150;SDS011;57517;43.562;19.540;2023-12-20T00:25:49;47.97;;;29.98;;
70150;SDS011;57517;43.562;19.540;2023-12-20T00:28:15;49.83;;;31.55;;
70150;SDS011;57517;43.562;19.540;2023-12-20T00:30:41;46.08;;;30.58;;
70150;SDS011;57517;43.562;19.540;2023-12-20T00:33:07;47.45;;;30.48;;
70150;SDS011;57517;43.562;19.540;2023-12-20T00:35:32;45.13;;;29.75;;
70150;SDS011;57517;43.562;19.540;2023-12-20T00:37:58;54.40;;;32.60;;
70150;SDS011;57517;43.562;19.540;2023-12-20T00:40:24;56.55;;;34.83;;
70150;SDS011;57517;43.562;19.540;2023-12-20T00:42:50;54.72;;;34.35;;
70150;SDS011;57517;43.562;19.540;2023-12-20T00:45:16;48.10;;;33.38;;
70150;SDS011;57517;43.562;19.540;2023-12-20T00:47:41;61.65;;;36.97;;
70150;SDS011;57517;43.562;19.540;2023-12-20T00:50:08;48.50;;;33.13;;
70150;SDS011;57517;43.562;19.540;2023-12-20T00:52:34;48.42;;;32.60;;
70150;SDS011;57517;43.562;19.540;2023-12-20T00:55:00;48.50;;;32.08;;
70150;SDS011;57517;43.562;19.540;2023-12-20T00:57:26;53.00;;;30.65;;
70150;SDS011;57517;43.562;19.540;2023-12-20T00:59:51;52.90;;;32.95;;
70150;SDS011;57517;43.562;19.540;2023-12-20T01:02:17;51.85;;;34.70;;
70150;SDS011;57517;43.562;19.540;2023-12-20T01:04:44;52.67;;;31.92;;
70150;SDS011;57517;43.562;19.540;2023-12-20T01:07:10;53.13;;;32.15;;
70150;SDS011;57517;43.562;19.540;2023-12-20T01:09:35;49.92;;;31.55;;
70150;SDS011;57517;43.562;19.540;2023-12-20T01:12:01;50.70;;;31.20;;
70150;SDS011;57517;43.562;19.540;2023-12-20T01:14:27;57.33;;;32.92;;
70150;SDS011;57517;43.562;19.540;2023-12-20T01:16:53;51.90;;;33.53;;
70150;SDS011;57517;43.562;19.540;2023-12-20T01:19:18;50.22;;;30.58;;
70150;SDS011;57517;43.562;19.540;2023-12-20T01:21:44;47.15;;;29.98;;
70150;SDS011;57517;43.562;19.540;2023-12-20T01:24:10;44.28;;;29.88;;
70150;SDS011;57517;43.562;19.540;2023-12-20T01:26:36;46.95;;;29.63;;
70150;SDS011;57517;43.562;19.540;2023-12-20T01:29:02;48.85;;;32.78;;
70150;SDS011;57517;43.562;19.540;2023-12-20T01:31:28;47.72;;;29.38;;
70150;SDS011;57517;43.562;19.540;2023-12-20T01:33:53;39.70;;;26.52;;
70150;SDS011;57517;43.562;19.540;2023-12-20T01:36:19;42.78;;;27.13;;
70150;SDS011;57517;43.562;19.540;2023-12-20T01:38:45;42.30;;;29.60;;
70150;SDS011;57517;43.562;19.540;2023-12-20T01:41:11;44.63;;;27.98;;
70150;SDS011;57517;43.562;19.540;2023-12-20T01:43:36;46.85;;;28.50;;
70150;SDS011;57517;43.562;19.540;2023-12-20T01:46:02;44.30;;;28.60;;
70150;SDS011;57517;43.562;19.540;2023-12-20T01:48:29;47.65;;;29.02;;
70150;SDS011;57517;43.562;19.540;2023-12-20T01:50:57;44.97;;;28.88;;
70150;SDS011;57517;43.562;19.540;2023-12-20T01:53:24;45.42;;;28.40;;
70150;SDS011;57517;43.562;19.540;2023-12-20T01:55:52;42.20;;;27.98;;
70150;SDS011;57517;43.562;19.540;2023-12-20T01:58:20;41.60;;;26.63;;
70150;SDS011;57517;43.562;19.540;2023-12-20T02:00:47;42.33;;;27.70;;
70150;SDS011;57517;43.562;19.540;2023-12-20T02:03:14;44.17;;;28.20;;
70150;SDS011;57517;43.562;19.540;2023-12-20T02:05:41;44.92;;;28.63;;
70150;SDS011;57517;43.562;19.540;2023-12-20T02:08:07;38.55;;;26.00;;
70150;SDS011;57517;43.562;19.540;2023-12-20T02:10:33;44.50;;;27.75;;
70150;SDS011;57517;43.562;19.540;2023-12-20T02:12:59;40.70;;;25.05;;
70150;SDS011;57517;43.562;19.540;2023-12-20T02:15:25;45.58;;;26.08;;
70150;SDS011;57517;43.562;19.540;2023-12-20T02:17:51;41.40;;;25.67;;
70150;SDS011;57517;43.562;19.540;2023-12-20T02:20:17;33.90;;;21.35;;
70150;SDS011;57517;43.562;19.540;2023-12-20T02:22:43;41.88;;;23.70;;
70150;SDS011;57517;43.562;19.540;2023-12-20T02:25:08;38.42;;;24.10;;
70150;SDS011;57517;43.562;19.540;2023-12-20T02:27:34;33.88;;;22.85;;
70150;SDS011;57517;43.562;19.540;2023-12-20T02:30:00;37.40;;;22.45;;
70150;SDS011;57517;43.562;19.540;2023-12-20T02:32:26;37.17;;;24.33;;
70150;SDS011;57517;43.562;19.540;2023-12-20T02:34:54;38.08;;;23.92;;
70150;SDS011;57517;43.562;19.540;2023-12-20T02:37:20;38.50;;;22.90;;
70150;SDS011;57517;43.562;19.540;2023-12-20T02:39:46;38.53;;;23.17;;
70150;SDS011;57517;43.562;19.540;2023-12-20T02:42:12;39.90;;;24.35;;
70150;SDS011;57517;43.562;19.540;2023-12-20T02:44:38;34.60;;;24.27;;
70150;SDS011;57517;43.562;19.540;2023-12-20T02:47:03;37.67;;;22.95;;
70150;SDS011;57517;43.562;19.540;2023-12-20T02:49:29;39.90;;;24.23;;
70150;SDS011;57517;43.562;19.540;2023-12-20T02:51:55;38.05;;;23.95;;
70150;SDS011;57517;43.562;19.540;2023-12-20T02:54:21;36.88;;;22.88;;
70150;SDS011;57517;43.562;19.540;2023-12-20T02:56:47;33.20;;;22.88;;
70150;SDS011;57517;43.562;19.540;2023-12-20T02:59:13;33.28;;;21.90;;
70150;SDS011;57517;43.562;19.540;2023-12-20T03:01:43;38.08;;;22.15;;
70150;SDS011;57517;43.562;19.540;2023-12-20T03:04:10;34.47;;;21.67;;
70150;SDS011;57517;43.562;19.540;2023-12-20T03:06:37;37.80;;;23.25;;
70150;SDS011;57517;43.562;19.540;2023-12-20T03:09:03;34.55;;;22.27;;
70150;SDS011;57517;43.562;19.540;2023-12-20T03:11:29;38.10;;;25.00;;
70150;SDS011;57517;43.562;19.540;2023-12-20T03:13:55;36.53;;;22.27;;
70150;SDS011;57517;43.562;19.540;2023-12-20T03:16:22;35.58;;;22.77;;
70150;SDS011;57517;43.562;19.540;2023-12-20T03:18:47;32.55;;;22.95;;
70150;SDS011;57517;43.562;19.540;2023-12-20T03:21:13;34.03;;;21.90;;
70150;SDS011;57517;43.562;19.540;2023-12-20T03:23:39;34.22;;;22.02;;
70150;SDS011;57517;43.562;19.540;2023-12-20T03:26:08;37.38;;;22.77;;
70150;SDS011;57517;43.562;19.540;2023-12-20T03:28:34;30.75;;;20.40;;
70150;SDS011;57517;43.562;19.540;2023-12-20T03:31:01;32.67;;;20.40;;
70150;SDS011;57517;43.562;19.540;2023-12-20T03:33:27;31.52;;;20.42;;
70150;SDS011;57517;43.562;19.540;2023-12-20T03:35:54;31.65;;;21.65;;
70150;SDS011;57517;43.562;19.540;2023-12-20T03:38:20;32.67;;;21.60;;
70150;SDS011;57517;43.562;19.540;2023-12-20T03:40:46;39.53;;;22.30;;
70150;SDS011;57517;43.562;19.540;2023-12-20T03:43:12;33.03;;;20.75;;
70150;SDS011;57517;43.562;19.540;2023-12-20T03:45:38;33.65;;;21.42;;
70150;SDS011;57517;43.562;19.540;2023-12-20T03:48:04;34.67;;;22.50;;
70150;SDS011;57517;43.562;19.540;2023-12-20T03:50:30;32.45;;;20.23;;
70150;SDS011;57517;43.562;19.540;2023-12-20T03:52:56;32.35;;;19.52;;
70150;SDS011;57517;43.562;19.540;2023-12-20T03:55:22;29.17;;;19.00;;
70150;SDS011;57517;43.562;19.540;2023-12-20T03:57:48;31.60;;;20.25;;
70150;SDS011;57517;43.562;19.540;2023-12-20T04:00:14;32.55;;;19.27;;
70150;SDS011;57517;43.562;19.540;2023-12-20T04:02:40;29.42;;;19.75;;
70150;SDS011;57517;43.562;19.540;2023-12-20T04:05:07;28.92;;;19.98;;
70150;SDS011;57517;43.562;19.540;2023-12-20T04:07:37;31.95;;;19.52;;
70150;SDS011;57517;43.562;19.540;2023-12-20T04:10:03;29.83;;;19.95;;
70150;SDS011;57517;43.562;19.540;2023-12-20T04:12:30;30.60;;;18.92;;
70150;SDS011;57517;43.562;19.540;2023-12-20T04:14:56;32.05;;;18.75;;
70150;SDS011;57517;43.562;19.540;2023-12-20T04:17:22;31.10;;;20.45;;
70150;SDS011;57517;43.562;19.540;2023-12-20T04:19:48;25.95;;;18.65;;
70150;SDS011;57517;43.562;19.540;2023-12-20T04:22:15;29.65;;;18.38;;
70150;SDS011;57517;43.562;19.540;2023-12-20T04:24:42;28.83;;;18.38;;
70150;SDS011;57517;43.562;19.540;2023-12-20T04:27:08;33.15;;;19.33;;
70150;SDS011;57517;43.562;19.540;2023-12-20T04:29:34;27.15;;;18.83;;
70150;SDS011;57517;43.562;19.540;2023-12-20T04:31:59;28.00;;;17.63;;
70150;SDS011;57517;43.562;19.540;2023-12-20T04:34:25;28.70;;;18.33;;
70150;SDS011;57517;43.562;19.540;2023-12-20T04:36:52;27.80;;;17.85;;
70150;SDS011;57517;43.562;19.540;2023-12-20T04:39:18;32.08;;;20.50;;
70150;SDS011;57517;43.562;19.540;2023-12-20T04:41:44;24.63;;;17.35;;
70150;SDS011;57517;43.562;19.540;2023-12-20T04:44:09;25.95;;;17.60;;
70150;SDS011;57517;43.562;19.540;2023-12-20T04:46:35;25.55;;;18.90;;
70150;SDS011;57517;43.562;19.540;2023-12-20T04:49:01;28.08;;;18.42;;
70150;SDS011;57517;43.562;19.540;2023-12-20T04:51:27;30.85;;;18.67;;
70150;SDS011;57517;43.562;19.540;2023-12-20T04:53:53;29.13;;;18.35;;
70150;SDS011;57517;43.562;19.540;2023-12-20T04:56:18;29.08;;;18.00;;
70150;SDS011;57517;43.562;19.540;2023-12-20T04:58:44;29.80;;;18.35;;
70150;SDS011;57517;43.562;19.540;2023-12-20T05:01:10;24.52;;;17.20;;
70150;SDS011;57517;43.562;19.540;2023-12-20T05:03:37;29.40;;;17.85;;
70150;SDS011;57517;43.562;19.540;2023-12-20T05:06:02;31.08;;;19.00;;
70150;SDS011;57517;43.562;19.540;2023-12-20T05:08:28;30.35;;;18.92;;
70150;SDS011;57517;43.562;19.540;2023-12-20T05:10:54;30.23;;;18.75;;
70150;SDS011;57517;43.562;19.540;2023-12-20T05:13:20;28.90;;;18.42;;
70150;SDS011;57517;43.562;19.540;2023-12-20T05:15:46;28.35;;;18.08;;
70150;SDS011;57517;43.562;19.540;2023-12-20T05:18:12;29.60;;;18.70;;
70150;SDS011;57517;43.562;19.540;2023-12-20T05:20:38;32.30;;;20.23;;
70150;SDS011;57517;43.562;19.540;2023-12-20T05:23:04;28.88;;;20.05;;
70150;SDS011;57517;43.562;19.540;2023-12-20T05:25:31;38.70;;;24.45;;
70150;SDS011;57517;43.562;19.540;2023-12-20T05:27:56;36.88;;;25.58;;
70150;SDS011;57517;43.562;19.540;2023-12-20T05:30:22;42.25;;;26.75;;
70150;SDS011;57517;43.562;19.540;2023-12-20T05:32:48;41.78;;;28.73;;
70150;SDS011;57517;43.562;19.540;2023-12-20T05:35:14;39.70;;;25.85;;
70150;SDS011;57517;43.562;19.540;2023-12-20T05:37:40;42.83;;;27.35;;
70150;SDS011;57517;43.562;19.540;2023-12-20T05:40:07;43.90;;;28.35;;
70150;SDS011;57517;43.562;19.540;2023-12-20T05:42:36;42.45;;;28.58;;
70150;SDS011;57517;43.562;19.540;2023-12-20T05:45:03;42.88;;;27.52;;
70150;SDS011;57517;43.562;19.540;2023-12-20T05:47:29;42.10;;;28.55;;
70150;SDS011;57517;43.562;19.540;2023-12-20T05:49:55;42.10;;;28.40;;
70150;SDS011;57517;43.562;19.540;2023-12-20T05:52:21;43.95;;;28.73;;
70150;SDS011;57517;43.562;19.540;2023-12-20T05:54:47;43.30;;;27.10;;
70150;SDS011;57517;43.562;19.540;2023-12-20T05:57:13;43.08;;;25.98;;
70150;SDS011;57517;43.562;19.540;2023-12-20T05:59:39;43.00;;;25.08;;
70150;SDS011;57517;43.562;19.540;2023-12-20T06:02:05;40.08;;;26.77;;
70150;SDS011;57517;43.562;19.540;2023-12-20T06:04:30;40.10;;;25.50;;
70150;SDS011;57517;43.562;19.540;2023-12-20T06:06:56;40.95;;;26.90;;
70150;SDS011;57517;43.562;19.540;2023-12-20T06:09:22;45.78;;;26.85;;
70150;SDS011;57517;43.562;19.540;2023-12-20T06:11:49;42.25;;;25.52;;
70150;SDS011;57517;43.562;19.540;2023-12-20T06:14:16;40.13;;;26.85;;
70150;SDS011;57517;43.562;19.540;2023-12-20T06:16:42;44.45;;;28.13;;
70150;SDS011;57517;43.562;19.540;2023-12-20T06:19:08;54.22;;;31.92;;
70150;SDS011;57517;43.562;19.540;2023-12-20T06:21:34;61.13;;;34.65;;
70150;SDS011;57517;43.562;19.540;2023-12-20T06:23:59;48.35;;;31.55;;
70150;SDS011;57517;43.562;19.540;2023-12-20T06:26:25;42.50;;;29.05;;
70150;SDS011;57517;43.562;19.540;2023-12-20T06:28:51;49.13;;;30.80;;
70150;SDS011;57517;43.562;19.540;2023-12-20T06:31:17;46.28;;;28.00;;
70150;SDS011;57517;43.562;19.540;2023-12-20T06:33:43;45.53;;;28.48;;
70150;SDS011;57517;43.562;19.540;2023-12-20T06:36:12;44.92;;;26.90;;
70150;SDS011;57517;43.562;19.540;2023-12-20T06:38:38;45.30;;;29.25;;
70150;SDS011;57517;43.562;19.540;2023-12-20T06:41:04;45.78;;;28.98;;
70150;SDS011;57517;43.562;19.540;2023-12-20T06:43:31;43.83;;;27.83;;
70150;SDS011;57517;43.562;19.540;2023-12-20T06:45:58;48.33;;;29.73;;
70150;SDS011;57517;43.562;19.540;2023-12-20T06:48:25;43.42;;;29.92;;
70150;SDS011;57517;43.562;19.540;2023-12-20T06:50:51;44.42;;;31.02;;
70150;SDS011;57517;43.562;19.540;2023-12-20T06:53:17;47.67;;;29.00;;
70150;SDS011;57517;43.562;19.540;2023-12-20T06:55:43;40.17;;;28.65;;
70150;SDS011;57517;43.562;19.540;2023-12-20T06:58:09;87.90;;;52.83;;
70150;SDS011;57517;43.562;19.540;2023-12-20T07:00:35;218.82;;;136.88;;
70150;SDS011;57517;43.562;19.540;2023-12-20T07:03:00;151.75;;;100.28;;
70150;SDS011;57517;43.562;19.540;2023-12-20T07:05:26;92.72;;;58.35;;
70150;SDS011;57517;43.562;19.540;2023-12-20T07:07:52;75.90;;;52.33;;
70150;SDS011;57517;43.562;19.540;2023-12-20T07:10:18;86.40;;;57.50;;
70150;SDS011;57517;43.562;19.540;2023-12-20T07:12:44;53.78;;;40.22;;
70150;SDS011;57517;43.562;19.540;2023-12-20T07:15:10;53.30;;;37.97;;
70150;SDS011;57517;43.562;19.540;2023-12-20T07:17:36;44.90;;;29.77;;
70150;SDS011;57517;43.562;19.540;2023-12-20T07:20:03;39.95;;;27.80;;
70150;SDS011;57517;43.562;19.540;2023-12-20T07:22:30;45.67;;;30.75;;
70150;SDS011;57517;43.562;19.540;2023-12-20T07:24:58;48.08;;;33.25;;
70150;SDS011;57517;43.562;19.540;2023-12-20T07:27:25;47.47;;;32.58;;
70150;SDS011;57517;43.562;19.540;2023-12-20T07:29:51;41.80;;;29.73;;
70150;SDS011;57517;43.562;19.540;2023-12-20T07:32:17;48.10;;;33.28;;
70150;SDS011;57517;43.562;19.540;2023-12-20T07:34:43;49.85;;;30.77;;
70150;SDS011;57517;43.562;19.540;2023-12-20T07:37:09;47.50;;;30.70;;
70150;SDS011;57517;43.562;19.540;2023-12-20T07:39:37;50.38;;;35.95;;
70150;SDS011;57517;43.562;19.540;2023-12-20T07:42:05;55.92;;;36.88;;
70150;SDS011;57517;43.562;19.540;2023-12-20T07:44:31;51.72;;;35.83;;
70150;SDS011;57517;43.562;19.540;2023-12-20T07:46:57;40.38;;;30.25;;
70150;SDS011;57517;43.562;19.540;2023-12-20T07:49:23;48.22;;;30.83;;
70150;SDS011;57517;43.562;19.540;2023-12-20T07:51:49;52.22;;;38.40;;
70150;SDS011;57517;43.562;19.540;2023-12-20T07:54:15;48.97;;;33.70;;
70150;SDS011;57517;43.562;19.540;2023-12-20T07:56:41;57.92;;;37.53;;
70150;SDS011;57517;43.562;19.540;2023-12-20T07:59:07;53.63;;;35.05;;
70150;SDS011;57517;43.562;19.540;2023-12-20T08:01:32;45.05;;;31.17;;
70150;SDS011;57517;43.562;19.540;2023-12-20T08:03:58;44.80;;;30.05;;
70150;SDS011;57517;43.562;19.540;2023-12-20T08:06:24;45.75;;;33.97;;
70150;SDS011;57517;43.562;19.540;2023-12-20T08:08:50;41.88;;;29.40;;
70150;SDS011;57517;43.562;19.540;2023-12-20T08:11:16;45.13;;;29.85;;
70150;SDS011;57517;43.562;19.540;2023-12-20T08:13:42;46.08;;;27.85;;
70150;SDS011;57517;43.562;19.540;2023-12-20T08:16:08;51.63;;;33.90;;
70150;SDS011;57517;43.562;19.540;2023-12-20T08:18:34;49.03;;;33.33;;
70150;SDS011;57517;43.562;19.540;2023-12-20T08:21:00;44.60;;;30.10;;
70150;SDS011;57517;43.562;19.540;2023-12-20T08:23:26;44.85;;;29.25;;
70150;SDS011;57517;43.562;19.540;2023-12-20T08:25:52;49.90;;;29.88;;
70150;SDS011;57517;43.562;19.540;2023-12-20T08:28:18;54.60;;;35.67;;
70150;SDS011;57517;43.562;19.540;2023-12-20T08:30:44;57.30;;;39.42;;
70150;SDS011;57517;43.562;19.540;2023-12-20T08:33:10;51.13;;;34.00;;
70150;SDS011;57517;43.562;19.540;2023-12-20T08:35:36;63.33;;;38.05;;
70150;SDS011;57517;43.562;19.540;2023-12-20T08:38:02;43.92;;;29.73;;
70150;SDS011;57517;43.562;19.540;2023-12-20T08:40:29;47.65;;;31.13;;
70150;SDS011;57517;43.562;19.540;2023-12-20T08:42:55;50.00;;;29.98;;
70150;SDS011;57517;43.562;19.540;2023-12-20T08:45:21;50.53;;;30.20;;
70150;SDS011;57517;43.562;19.540;2023-12-20T08:47:46;45.70;;;31.58;;
70150;SDS011;57517;43.562;19.540;2023-12-20T08:50:12;45.47;;;32.35;;
70150;SDS011;57517;43.562;19.540;2023-12-20T08:52:38;44.05;;;32.63;;
70150;SDS011;57517;43.562;19.540;2023-12-20T08:55:04;52.22;;;36.45;;
70150;SDS011;57517;43.562;19.540;2023-12-20T08:57:30;54.15;;;38.17;;
70150;SDS011;57517;43.562;19.540;2023-12-20T08:59:57;63.30;;;38.40;;
70150;SDS011;57517;43.562;19.540;2023-12-20T09:02:22;55.88;;;36.20;;
70150;SDS011;57517;43.562;19.540;2023-12-20T09:04:48;56.28;;;37.22;;
70150;SDS011;57517;43.562;19.540;2023-12-20T09:07:21;58.95;;;40.45;;
70150;SDS011;57517;43.562;19.540;2023-12-20T09:09:50;61.33;;;38.70;;
70150;SDS011;57517;43.562;19.540;2023-12-20T09:12:19;56.42;;;35.38;;
70150;SDS011;57517;43.562;19.540;2023-12-20T09:14:46;57.03;;;37.75;;
70150;SDS011;57517;43.562;19.540;2023-12-20T09:17:12;66.97;;;42.58;;
70150;SDS011;57517;43.562;19.540;2023-12-20T09:19:38;58.20;;;41.40;;
70150;SDS011;57517;43.562;19.540;2023-12-20T09:22:04;49.67;;;34.72;;
70150;SDS011;57517;43.562;19.540;2023-12-20T09:24:30;48.72;;;32.33;;
70150;SDS011;57517;43.562;19.540;2023-12-20T09:26:57;42.50;;;32.17;;
70150;SDS011;57517;43.562;19.540;2023-12-20T09:29:23;48.85;;;34.08;;
70150;SDS011;57517;43.562;19.540;2023-12-20T09:31:49;45.33;;;31.20;;
70150;SDS011;57517;43.562;19.540;2023-12-20T09:34:15;48.90;;;32.88;;
70150;SDS011;57517;43.562;19.540;2023-12-20T09:36:42;50.33;;;33.03;;
70150;SDS011;57517;43.562;19.540;2023-12-20T09:39:14;62.08;;;41.15;;
70150;SDS011;57517;43.562;19.540;2023-12-20T09:41:45;47.80;;;35.90;;
70150;SDS011;57517;43.562;19.540;2023-12-20T09:44:22;55.25;;;36.85;;
70150;SDS011;57517;43.562;19.540;2023-12-20T09:46:49;60.80;;;42.72;;
70150;SDS011;57517;43.562;19.540;2023-12-20T09:49:17;71.93;;;48.50;;
70150;SDS011;57517;43.562;19.540;2023-12-20T09:51:44;55.55;;;37.72;;
70150;SDS011;57517;43.562;19.540;2023-12-20T09:54:13;80.75;;;55.33;;
70150;SDS011;57517;43.562;19.540;2023-12-20T09:56:40;72.20;;;49.30;;
70150;SDS011;57517;43.562;19.540;2023-12-20T09:59:06;64.00;;;44.78;;
70150;SDS011;57517;43.562;19.540;2023-12-20T10:01:32;64.47;;;41.90;;
70150;SDS011;57517;43.562;19.540;2023-12-20T10:03:59;52.90;;;34.72;;
70150;SDS011;57517;43.562;19.540;2023-12-20T10:06:27;48.45;;;30.67;;
70150;SDS011;57517;43.562;19.540;2023-12-20T10:08:52;40.83;;;26.98;;
70150;SDS011;57517;43.562;19.540;2023-12-20T10:11:18;41.08;;;29.58;;
70150;SDS011;57517;43.562;19.540;2023-12-20T10:13:44;51.35;;;31.77;;
70150;SDS011;57517;43.562;19.540;2023-12-20T10:16:13;49.80;;;35.30;;
70150;SDS011;57517;43.562;19.540;2023-12-20T10:18:39;47.97;;;32.15;;
70150;SDS011;57517;43.562;19.540;2023-12-20T10:21:05;49.83;;;33.47;;
70150;SDS011;57517;43.562;19.540;2023-12-20T10:23:34;51.17;;;35.17;;
70150;SDS011;57517;43.562;19.540;2023-12-20T10:26:00;48.28;;;35.65;;
70150;SDS011;57517;43.562;19.540;2023-12-20T10:28:27;48.65;;;34.65;;
70150;SDS011;57517;43.562;19.540;2023-12-20T10:30:59;57.50;;;41.95;;
70150;SDS011;57517;43.562;19.540;2023-12-20T10:33:28;52.83;;;37.88;;
70150;SDS011;57517;43.562;19.540;2023-12-20T10:35:57;49.90;;;31.20;;
70150;SDS011;57517;43.562;19.540;2023-12-20T10:38:23;41.63;;;30.05;;
70150;SDS011;57517;43.562;19.540;2023-12-20T10:40:49;38.17;;;27.70;;
70150;SDS011;57517;43.562;19.540;2023-12-20T10:43:19;42.15;;;28.90;;
70150;SDS011;57517;43.562;19.540;2023-12-20T10:45:46;64.05;;;41.35;;
70150;SDS011;57517;43.562;19.540;2023-12-20T10:48:12;74.30;;;47.92;;
70150;SDS011;57517;43.562;19.540;2023-12-20T10:50:38;62.10;;;41.80;;
70150;SDS011;57517;43.562;19.540;2023-12-20T10:53:06;46.90;;;35.92;;
70150;SDS011;57517;43.562;19.540;2023-12-20T10:55:32;48.40;;;36.92;;
70150;SDS011;57517;43.562;19.540;2023-12-20T10:58:03;49.92;;;36.90;;
70150;SDS011;57517;43.562;19.540;2023-12-20T11:00:32;49.10;;;35.58;;
70150;SDS011;57517;43.562;19.540;2023-12-20T11:03:03;49.60;;;34.92;;
70150;SDS011;57517;43.562;19.540;2023-12-20T11:05:47;60.67;;;40.70;;
70150;SDS011;57517;43.562;19.540;2023-12-20T11:08:17;52.85;;;37.85;;
70150;SDS011;57517;43.562;19.540;2023-12-20T11:13:22;46.33;;;29.55;;
70150;SDS011;57517;43.562;19.540;2023-12-20T11:15:53;44.65;;;29.52;;
70150;SDS011;57517;43.562;19.540;2023-12-20T11:18:19;44.55;;;29.92;;
70150;SDS011;57517;43.562;19.540;2023-12-20T11:20:44;51.55;;;33.72;;
70150;SDS011;57517;43.562;19.540;2023-12-20T11:23:10;48.03;;;31.60;;
70150;SDS011;57517;43.562;19.540;2023-12-20T11:25:46;43.78;;;29.63;;
70150;SDS011;57517;43.562;19.540;2023-12-20T11:28:24;41.05;;;28.42;;
70150;SDS011;57517;43.562;19.540;2023-12-20T11:30:52;39.03;;;28.17;;
70150;SDS011;57517;43.562;19.540;2023-12-20T11:33:22;42.15;;;26.90;;
70150;SDS011;57517;43.562;19.540;2023-12-20T11:35:49;37.00;;;26.38;;
70150;SDS011;57517;43.562;19.540;2023-12-20T11:38:15;47.25;;;30.17;;
70150;SDS011;57517;43.562;19.540;2023-12-20T11:40:42;39.70;;;27.23;;
70150;SDS011;57517;43.562;19.540;2023-12-20T11:43:09;38.65;;;26.10;;
70150;SDS011;57517;43.562;19.540;2023-12-20T11:45:35;44.30;;;27.73;;
70150;SDS011;57517;43.562;19.540;2023-12-20T11:48:03;45.78;;;31.95;;
70150;SDS011;57517;43.562;19.540;2023-12-20T11:50:31;46.45;;;30.70;;
70150;SDS011;57517;43.562;19.540;2023-12-20T11:52:57;43.17;;;29.30;;
70150;SDS011;57517;43.562;19.540;2023-12-20T11:55:23;43.83;;;27.58;;
70150;SDS011;57517;43.562;19.540;2023-12-20T11:57:52;40.08;;;27.58;;
70150;SDS011;57517;43.562;19.540;2023-12-20T12:00:19;36.30;;;24.42;;
70150;SDS011;57517;43.562;19.540;2023-12-20T12:02:55;42.08;;;25.85;;
70150;SDS011;57517;43.562;19.540;2023-12-20T12:05:21;38.33;;;23.63;;
70150;SDS011;57517;43.562;19.540;2023-12-20T12:07:48;38.83;;;25.77;;
70150;SDS011;57517;43.562;19.540;2023-12-20T12:10:14;41.75;;;30.20;;
70150;SDS011;57517;43.562;19.540;2023-12-20T12:12:40;39.50;;;24.73;;
70150;SDS011;57517;43.562;19.540;2023-12-20T12:15:06;39.25;;;25.88;;
70150;SDS011;57517;43.562;19.540;2023-12-20T12:17:33;34.38;;;24.15;;
70150;SDS011;57517;43.562;19.540;2023-12-20T12:20:05;37.75;;;24.73;;
70150;SDS011;57517;43.562;19.540;2023-12-20T12:22:31;36.35;;;23.02;;
70150;SDS011;57517;43.562;19.540;2023-12-20T12:25:09;32.95;;;21.42;;
70150;SDS011;57517;43.562;19.540;2023-12-20T12:27:36;36.17;;;25.10;;
70150;SDS011;57517;43.562;19.540;2023-12-20T12:30:03;45.28;;;31.20;;
70150;SDS011;57517;43.562;19.540;2023-12-20T12:32:32;44.58;;;29.27;;
70150;SDS011;57517;43.562;19.540;2023-12-20T12:34:58;45.28;;;30.58;;
70150;SDS011;57517;43.562;19.540;2023-12-20T12:37:24;43.13;;;29.85;;
70150;SDS011;57517;43.562;19.540;2023-12-20T12:39:50;55.38;;;33.78;;
70150;SDS011;57517;43.562;19.540;2023-12-20T12:42:18;50.15;;;36.38;;
70150;SDS011;57517;43.562;19.540;2023-12-20T12:44:44;63.28;;;40.83;;
70150;SDS011;57517;43.562;19.540;2023-12-20T12:47:09;40.83;;;31.40;;
70150;SDS011;57517;43.562;19.540;2023-12-20T12:49:35;44.33;;;30.40;;
70150;SDS011;57517;43.562;19.540;2023-12-20T12:52:01;67.97;;;42.15;;
70150;SDS011;57517;43.562;19.540;2023-12-20T12:54:28;65.05;;;40.85;;
70150;SDS011;57517;43.562;19.540;2023-12-20T12:56:53;55.08;;;35.50;;
70150;SDS011;57517;43.562;19.540;2023-12-20T12:59:21;46.10;;;33.60;;
70150;SDS011;57517;43.562;19.540;2023-12-20T13:01:46;46.55;;;29.52;;
70150;SDS011;57517;43.562;19.540;2023-12-20T13:04:13;43.53;;;31.65;;
70150;SDS011;57517;43.562;19.540;2023-12-20T13:06:39;43.20;;;30.60;;
70150;SDS011;57517;43.562;19.540;2023-12-20T13:09:07;42.97;;;31.85;;
70150;SDS011;57517;43.562;19.540;2023-12-20T13:11:34;48.25;;;32.45;;
70150;SDS011;57517;43.562;19.540;2023-12-20T13:14:01;36.58;;;27.85;;
70150;SDS011;57517;43.562;19.540;2023-12-20T13:16:28;40.80;;;31.02;;
70150;SDS011;57517;43.562;19.540;2023-12-20T13:18:54;53.10;;;35.72;;
70150;SDS011;57517;43.562;19.540;2023-12-20T13:21:21;47.97;;;32.75;;
70150;SDS011;57517;43.562;19.540;2023-12-20T13:23:46;43.53;;;30.10;;
70150;SDS011;57517;43.562;19.540;2023-12-20T13:26:12;51.80;;;34.05;;
70150;SDS011;57517;43.562;19.540;2023-12-20T13:28:38;46.60;;;31.20;;
70150;SDS011;57517;43.562;19.540;2023-12-20T13:31:04;44.38;;;29.05;;
70150;SDS011;57517;43.562;19.540;2023-12-20T13:33:30;44.42;;;26.92;;
70150;SDS011;57517;43.562;19.540;2023-12-20T13:35:56;44.08;;;29.27;;
70150;SDS011;57517;43.562;19.540;2023-12-20T13:38:23;41.53;;;30.02;;
70150;SDS011;57517;43.562;19.540;2023-12-20T13:40:49;50.70;;;33.05;;
70150;SDS011;57517;43.562;19.540;2023-12-20T13:43:14;51.80;;;35.65;;
70150;SDS011;57517;43.562;19.540;2023-12-20T13:45:45;62.13;;;40.95;;
70150;SDS011;57517;43.562;19.540;2023-12-20T13:48:11;62.45;;;43.05;;
70150;SDS011;57517;43.562;19.540;2023-12-20T13:50:37;66.97;;;46.95;;
70150;SDS011;57517;43.562;19.540;2023-12-20T13:53:03;54.45;;;35.33;;
70150;SDS011;57517;43.562;19.540;2023-12-20T13:55:29;53.38;;;36.83;;
70150;SDS011;57517;43.562;19.540;2023-12-20T13:57:55;71.95;;;44.90;;
70150;SDS011;57517;43.562;19.540;2023-12-20T14:00:22;67.47;;;46.55;;
70150;SDS011;57517;43.562;19.540;2023-12-20T14:02:48;60.53;;;44.83;;
70150;SDS011;57517;43.562;19.540;2023-12-20T14:05:14;66.90;;;47.17;;
70150;SDS011;57517;43.562;19.540;2023-12-20T14:07:43;59.40;;;40.83;;